Nanning, China
Current Conditions -  °F | °C
As of 8:00 PM on Wednesday 28 Jan 2015 (Local Time) from ZGNN Reporting Station
Few Clouds Few Clouds  
Wind Chill: 68°   Ceiling: Unl
Heat Index: 68°   Visibility: 6mi
Dew Point: 61°   Wind: 9mph
Humidity: 78%   Direction: 160°SSE
Pressure: 29.91"   Gusts: NA
Location:  22.82°N, 108.32°E
Report Text: ZGNN 281200Z 16004MPS 9999 FEW020 20/16 Q1013 NOSIG
Loading
Personal Weather Stations






























Interactive Weather Map New forecast layout! Learn more

10-Day Weather Forecast

Advertisements
Track Severe Weather on mobile